Time;durP1;ratioP1;P1;durP2;ratioP2;P2;SDS_P1;SDS_P2;PMS_P1;PMS_P2;Temp;Humidity;BMP_temperature;BMP_pressure;BME280_temperature;BME280_humidity;BME280_pressure;Samples;Min_cycle;Max_cycle;Signal;HPM_P1;HPM_P2
2022/06/12 00:01:31;;;;;;;;;;;16.90;99.90;;;;;;5062975;28;19953;-65
2022/06/12 00:03:58;;;;;;;;;;;16.90;99.90;;;;;;5044977;28;19921;-64
2022/06/12 00:06:24;;;;;;;;;;;16.80;99.90;;;;;;5042565;28;19967;-64
2022/06/12 00:08:54;;;;;;;;;;;16.80;99.90;;;;;;5051437;28;20190;-64
2022/06/12 00:11:21;;;;;;;;;;;16.80;99.90;;;;;;5063421;28;19963;-64
2022/06/12 00:13:49;;;;;;;;;;;16.70;99.90;;;;;;5062929;28;20154;-64
2022/06/12 00:16:16;;;;;;;;;;;16.60;99.90;;;;;;5062818;28;19921;-65
2022/06/12 00:18:44;;;;;;;;;;;16.50;99.90;;;;;;5062940;28;19951;-64
2022/06/12 00:21:11;;;;;;;;;;;16.50;99.90;;;;;;5063217;28;19966;-64
2022/06/12 00:23:39;;;;;;;;;;;16.40;99.90;;;;;;5063097;28;19927;-63
2022/06/12 00:26:06;;;;;;;;;;;16.40;99.90;;;;;;5061542;28;19943;-65
2022/06/12 00:28:33;;;;;;;;;;;16.40;99.90;;;;;;5062784;28;19963;-64
2022/06/12 00:31:00;;;;;;;;;;;16.30;99.90;;;;;;5062737;28;19927;-64
2022/06/12 00:33:27;;;;;;;;;;;16.30;99.90;;;;;;5061481;28;19921;-64
2022/06/12 00:35:55;;;;;;;;;;;16.20;99.90;;;;;;5061411;28;19952;-64
2022/06/12 00:38:21;;;;;;;;;;;16.20;99.90;;;;;;5062312;28;19932;-64
2022/06/12 00:40:48;;;;;;;;;;;16.20;99.90;;;;;;5062455;28;19947;-65
2022/06/12 00:43:15;;;;;;;;;;;16.20;99.90;;;;;;5062772;28;19928;-65
2022/06/12 00:45:46;;;;;;;;;;;16.20;99.90;;;;;;5056667;28;19956;-65
2022/06/12 00:48:17;;;;;;;;;;;16.10;99.90;;;;;;5067032;28;19921;-65
2022/06/12 00:50:46;;;;;;;;;;;16.10;99.90;;;;;;5066999;28;19925;-65
2022/06/12 00:53:16;;;;;;;;;;;16.10;99.90;;;;;;5066811;28;19921;-65
2022/06/12 00:55:44;;;;;;;;;;;16.00;99.90;;;;;;5065668;28;19920;-65
2022/06/12 00:58:12;;;;;;;;;;;16.00;99.90;;;;;;5066904;28;19921;-65
2022/06/12 01:00:39;;;;;;;;;;;16.00;99.90;;;;;;5066499;28;19928;-65
2022/06/12 01:03:06;;;;;;;;;;;15.90;99.90;;;;;;5066496;28;20286;-65
2022/06/12 01:08:20;;;;;;;;;;;15.80;99.90;;;;;;5064313;28;19959;-64
2022/06/12 01:10:48;;;;;;;;;;;15.80;99.90;;;;;;5066074;28;20228;-65
2022/06/12 01:13:16;;;;;;;;;;;15.70;99.90;;;;;;5066479;28;19952;-65
2022/06/12 01:15:45;;;;;;;;;;;15.60;99.90;;;;;;5065588;28;20231;-65
2022/06/12 01:18:13;;;;;;;;;;;15.60;99.90;;;;;;5066454;28;19962;-64
2022/06/12 01:20:42;;;;;;;;;;;15.50;99.90;;;;;;5066181;28;19956;-65
2022/06/12 01:23:24;;;;;;;;;;;15.50;99.90;;;;;;5066259;28;19975;-65
2022/06/12 01:26:01;;;;;;;;;;;15.50;99.90;;;;;;5065490;28;19979;-64
2022/06/12 01:28:37;;;;;;;;;;;15.40;99.90;;;;;;5066652;28;19925;-64
2022/06/12 01:31:07;;;;;;;;;;;15.40;99.90;;;;;;5066068;28;19921;-64
2022/06/12 01:33:37;;;;;;;;;;;15.30;99.90;;;;;;5065545;28;20216;-64
2022/06/12 01:36:07;;;;;;;;;;;15.30;99.90;;;;;;5065152;28;20091;-65
2022/06/12 01:38:38;;;;;;;;;;;15.20;99.90;;;;;;5066118;28;19929;-64
2022/06/12 01:41:09;;;;;;;;;;;15.20;99.90;;;;;;5065600;28;19921;-65
2022/06/12 01:43:43;;;;;;;;;;;15.20;99.90;;;;;;5065589;28;19927;-65
2022/06/12 01:46:13;;;;;;;;;;;15.10;99.90;;;;;;5065183;28;19921;-65
2022/06/12 01:48:42;;;;;;;;;;;15.10;99.90;;;;;;5065608;28;19952;-65
2022/06/12 01:51:13;;;;;;;;;;;15.10;99.90;;;;;;5065897;28;19966;-65
2022/06/12 01:53:42;;;;;;;;;;;15.10;99.90;;;;;;5065576;28;19943;-65
2022/06/12 01:56:12;;;;;;;;;;;15.00;99.90;;;;;;5064249;28;19920;-65
2022/06/12 01:58:45;;;;;;;;;;;15.00;99.90;;;;;;5065507;28;19928;-65
2022/06/12 02:01:17;;;;;;;;;;;14.90;99.90;;;;;;5065086;28;20390;-65
2022/06/12 02:03:46;;;;;;;;;;;14.90;99.90;;;;;;5065637;28;19952;-65
2022/06/12 02:06:16;;;;;;;;;;;14.90;99.90;;;;;;5064986;28;19959;-65
2022/06/12 02:08:45;;;;;;;;;;;14.80;99.90;;;;;;5062936;28;19939;-65
2022/06/12 02:14:00;;;;;;;;;;;14.80;99.90;;;;;;5065433;28;19925;-64
2022/06/12 02:16:28;;;;;;;;;;;14.70;99.90;;;;;;5064665;28;19920;-64
2022/06/12 02:18:57;;;;;;;;;;;14.70;99.90;;;;;;5065375;28;20108;-64
2022/06/12 02:21:25;;;;;;;;;;;14.70;99.90;;;;;;5064868;28;20108;-64
2022/06/12 02:23:55;;;;;;;;;;;14.70;99.90;;;;;;5064928;28;19960;-64
2022/06/12 02:26:23;;;;;;;;;;;14.70;99.90;;;;;;5064344;28;19963;-64
2022/06/12 02:28:53;;;;;;;;;;;14.60;99.90;;;;;;5065191;28;19975;-64
2022/06/12 02:31:22;;;;;;;;;;;14.60;99.90;;;;;;5065060;28;19960;-65
2022/06/12 02:33:51;;;;;;;;;;;14.60;99.90;;;;;;5064503;28;19921;-65
2022/06/12 02:36:20;;;;;;;;;;;14.60;99.90;;;;;;5064119;28;19921;-64
2022/06/12 02:38:49;;;;;;;;;;;14.60;99.90;;;;;;5064825;28;19927;-64
2022/06/12 02:41:19;;;;;;;;;;;14.60;99.90;;;;;;5064794;28;19952;-65
2022/06/12 02:43:47;;;;;;;;;;;14.50;99.90;;;;;;5064401;28;19927;-64
2022/06/12 02:46:15;;;;;;;;;;;14.40;99.90;;;;;;5063990;28;19921;-64
2022/06/12 02:48:44;;;;;;;;;;;14.40;99.90;;;;;;5064309;28;19964;-64
2022/06/12 02:51:13;;;;;;;;;;;14.20;99.90;;;;;;5064428;28;19927;-64
2022/06/12 02:53:46;;;;;;;;;;;14.20;99.90;;;;;;5064620;28;19956;-65
2022/06/12 02:56:16;;;;;;;;;;;14.20;99.90;;;;;;5063598;28;19979;-65
2022/06/12 02:58:45;;;;;;;;;;;14.20;99.90;;;;;;5064133;28;19921;-65
2022/06/12 03:01:14;;;;;;;;;;;14.10;99.90;;;;;;5064173;28;19956;-65
2022/06/12 03:03:43;;;;;;;;;;;14.10;99.90;;;;;;5064052;28;19967;-64
2022/06/12 03:06:11;;;;;;;;;;;14.00;99.90;;;;;;5062539;28;19951;-64
2022/06/12 03:08:46;;;;;;;;;;;14.10;99.90;;;;;;5058993;28;19985;-64
2022/06/12 03:11:16;;;;;;;;;;;14.10;99.90;;;;;;5064305;28;19921;-64
2022/06/12 03:13:43;;;;;;;;;;;14.00;99.90;;;;;;5064196;28;19921;-64
2022/06/12 03:16:12;;;;;;;;;;;14.00;99.90;;;;;;5063973;28;19928;-64
2022/06/12 03:18:40;;;;;;;;;;;14.00;99.90;;;;;;5064289;28;19952;-64
2022/06/12 03:21:08;;;;;;;;;;;14.00;99.90;;;;;;5064288;28;19956;-64
2022/06/12 03:23:52;;;;;;;;;;;14.00;99.90;;;;;;5064409;28;19952;-64
2022/06/12 03:26:23;;;;;;;;;;;13.90;99.90;;;;;;5063639;28;19996;-64
2022/06/12 03:28:53;;;;;;;;;;;13.90;99.90;;;;;;5064043;28;19927;-65
2022/06/12 03:31:21;;;;;;;;;;;13.90;99.90;;;;;;5064451;28;19963;-64
2022/06/12 03:33:51;;;;;;;;;;;13.80;99.90;;;;;;5064394;28;20171;-64
2022/06/12 03:36:22;;;;;;;;;;;13.80;99.90;;;;;;5063519;28;20126;-65
2022/06/12 03:38:55;;;;;;;;;;;13.80;99.90;;;;;;5064341;28;19928;-64
2022/06/12 03:41:24;;;;;;;;;;;13.80;99.90;;;;;;5064279;28;19950;-64
2022/06/12 03:43:55;;;;;;;;;;;13.80;99.90;;;;;;5063875;28;19956;-64
2022/06/12 03:46:25;;;;;;;;;;;13.80;99.90;;;;;;5063175;28;20278;-63
2022/06/12 03:48:56;;;;;;;;;;;13.70;99.90;;;;;;5063770;28;19983;-64
2022/06/12 03:51:25;;;;;;;;;;;13.70;99.90;;;;;;5064118;28;19963;-64
2022/06/12 03:53:57;;;;;;;;;;;13.70;99.90;;;;;;5063700;28;19956;-64
2022/06/12 03:59:13;;;;;;;;;;;13.70;99.90;;;;;;5063761;28;19923;-64
2022/06/12 04:01:41;;;;;;;;;;;13.70;99.90;;;;;;5063734;28;19927;-65
2022/06/12 04:04:08;;;;;;;;;;;13.80;99.90;;;;;;5063825;28;19927;-64
2022/06/12 04:06:36;;;;;;;;;;;13.80;99.90;;;;;;5062669;28;19971;-65
2022/06/12 04:09:09;;;;;;;;;;;13.80;99.90;;;;;;5061002;28;20235;-65
2022/06/12 04:11:38;;;;;;;;;;;13.80;99.90;;;;;;5063707;28;19983;-64
2022/06/12 04:14:06;;;;;;;;;;;13.90;99.90;;;;;;5063674;28;20020;-64
2022/06/12 04:16:34;;;;;;;;;;;13.90;99.90;;;;;;5062563;28;19957;-65
2022/06/12 04:19:02;;;;;;;;;;;13.90;99.90;;;;;;5063325;28;19921;-65
2022/06/12 04:21:31;;;;;;;;;;;14.00;99.90;;;;;;5063521;28;19956;-65
2022/06/12 04:24:02;;;;;;;;;;;14.10;99.90;;;;;;5063361;28;20158;-64
2022/06/12 04:26:32;;;;;;;;;;;14.10;99.90;;;;;;5062569;28;19921;-64
2022/06/12 04:29:00;;;;;;;;;;;14.10;99.90;;;;;;5063238;28;19921;-64
2022/06/12 04:31:33;;;;;;;;;;;14.10;99.90;;;;;;5063273;28;19956;-64
2022/06/12 04:34:07;;;;;;;;;;;14.20;99.90;;;;;;5063130;28;19975;-65
2022/06/12 04:36:34;;;;;;;;;;;14.30;99.90;;;;;;5062407;28;19925;-65
2022/06/12 04:39:01;;;;;;;;;;;14.30;99.90;;;;;;5063431;28;19966;-64
2022/06/12 04:41:29;;;;;;;;;;;14.40;99.90;;;;;;5063442;28;20172;-64
2022/06/12 04:43:57;;;;;;;;;;;14.50;99.90;;;;;;5062987;28;19952;-64
2022/06/12 04:46:25;;;;;;;;;;;14.60;99.90;;;;;;5062255;28;19987;-64
2022/06/12 04:48:52;;;;;;;;;;;14.70;99.90;;;;;;5062830;28;19959;-64
2022/06/12 04:51:19;;;;;;;;;;;14.80;99.90;;;;;;5062931;28;20236;-64
2022/06/12 04:53:47;;;;;;;;;;;14.90;99.90;;;;;;5063322;28;19956;-65
2022/06/12 04:56:14;;;;;;;;;;;14.90;99.90;;;;;;5062346;28;20101;-64
2022/06/12 04:58:41;;;;;;;;;;;15.10;99.90;;;;;;5063290;28;20180;-64
2022/06/12 05:01:10;;;;;;;;;;;15.10;99.90;;;;;;5063092;28;20101;-64
2022/06/12 05:03:37;;;;;;;;;;;15.20;99.90;;;;;;5063229;28;19920;-64
2022/06/12 05:06:04;;;;;;;;;;;15.30;99.90;;;;;;5062390;28;19928;-64
2022/06/12 05:08:33;;;;;;;;;;;15.50;99.90;;;;;;5060489;28;19964;-64
2022/06/12 05:11:00;;;;;;;;;;;15.50;99.90;;;;;;5043247;28;19984;-65
2022/06/12 05:13:27;;;;;;;;;;;15.60;99.90;;;;;;5043145;28;19967;-64
2022/06/12 05:15:53;;;;;;;;;;;15.70;99.90;;;;;;5042467;28;19956;-64
2022/06/12 05:18:21;;;;;;;;;;;15.80;99.90;;;;;;5042828;28;19981;-65
2022/06/12 05:20:50;;;;;;;;;;;15.90;99.90;;;;;;5042779;28;19984;-64
2022/06/12 05:23:17;;;;;;;;;;;16.10;99.90;;;;;;5043044;28;19983;-64
2022/06/12 05:25:44;;;;;;;;;;;16.20;99.90;;;;;;5042443;28;20188;-65
2022/06/12 05:28:12;;;;;;;;;;;16.40;99.90;;;;;;5042613;28;19970;-65
2022/06/12 05:30:39;;;;;;;;;;;16.50;99.90;;;;;;5045020;28;19920;-65
2022/06/12 05:33:06;;;;;;;;;;;16.60;99.90;;;;;;5055119;28;20226;-65
2022/06/12 05:35:35;;;;;;;;;;;16.70;99.90;;;;;;5065322;28;20232;-65
2022/06/12 05:38:02;;;;;;;;;;;16.80;99.90;;;;;;5066118;28;19921;-65
2022/06/12 05:40:30;;;;;;;;;;;16.90;99.90;;;;;;5046131;28;19921;-65
2022/06/12 05:42:57;;;;;;;;;;;17.00;99.90;;;;;;5075846;23;19999;-64
2022/06/12 05:45:24;;;;;;;;;;;17.20;99.90;;;;;;5097515;28;20017;-65
2022/06/12 05:47:53;;;;;;;;;;;17.30;99.90;;;;;;5096206;28;19956;-65
2022/06/12 05:50:20;;;;;;;;;;;17.50;99.90;;;;;;5105973;28;19964;-65
2022/06/12 05:52:48;;;;;;;;;;;17.60;99.90;;;;;;5106273;28;19954;-65
2022/06/12 05:55:15;;;;;;;;;;;17.70;99.90;;;;;;5103125;28;19951;-65
2022/06/12 05:57:42;;;;;;;;;;;17.80;99.90;;;;;;5105600;28;19987;-65
2022/06/12 06:00:10;;;;;;;;;;;18.00;99.90;;;;;;5105875;28;19958;-65
2022/06/12 06:02:38;;;;;;;;;;;18.10;99.90;;;;;;5105634;28;19927;-65
2022/06/12 06:05:05;;;;;;;;;;;18.20;99.90;;;;;;5105636;28;20269;-64
2022/06/12 06:07:33;;;;;;;;;;;18.30;99.90;;;;;;5102662;28;20183;-64
2022/06/12 06:10:01;;;;;;;;;;;18.50;99.90;;;;;;5105605;28;20208;-65
2022/06/12 06:12:28;;;;;;;;;;;18.60;99.90;;;;;;5105380;28;19991;-65
2022/06/12 06:14:55;;;;;;;;;;;18.70;99.90;;;;;;5105462;28;20100;-65
2022/06/12 06:17:22;;;;;;;;;;;18.80;99.90;;;;;;5104698;28;19953;-65
2022/06/12 06:19:48;;;;;;;;;;;18.80;99.90;;;;;;5105544;28;19991;-65
2022/06/12 06:22:18;;;;;;;;;;;19.00;99.90;;;;;;5105498;28;20231;-65
2022/06/12 06:24:45;;;;;;;;;;;19.10;99.90;;;;;;5105453;28;19959;-65
2022/06/12 06:27:14;;;;;;;;;;;19.10;99.90;;;;;;5104576;28;20234;-65
2022/06/12 06:29:41;;;;;;;;;;;19.30;99.90;;;;;;5104977;28;19955;-65
2022/06/12 06:32:08;;;;;;;;;;;19.50;99.90;;;;;;5105154;28;20253;-65
2022/06/12 06:34:35;;;;;;;;;;;19.60;99.90;;;;;;5105199;28;19927;-65
2022/06/12 06:37:02;;;;;;;;;;;19.80;99.90;;;;;;5104471;28;19958;-65
2022/06/12 06:39:28;;;;;;;;;;;19.80;99.90;;;;;;5105170;28;19920;-65
2022/06/12 06:41:55;;;;;;;;;;;19.90;99.90;;;;;;5101026;28;19947;-65
2022/06/12 06:47:08;;;;;;;;;;;20.00;99.90;;;;;;5104163;28;20256;-64
2022/06/12 06:49:35;;;;;;;;;;;20.20;99.90;;;;;;5104668;28;19954;-65
2022/06/12 06:52:01;;;;;;;;;;;20.30;99.90;;;;;;5082276;28;19983;-65
2022/06/12 06:54:28;;;;;;;;;;;20.40;99.90;;;;;;5084828;28;20256;-65
2022/06/12 06:56:56;;;;;;;;;;;20.50;99.90;;;;;;5084035;28;19920;-64
2022/06/12 06:59:24;;;;;;;;;;;20.60;99.90;;;;;;5084885;28;19920;-65
2022/06/12 07:01:51;;;;;;;;;;;20.80;99.90;;;;;;5084506;28;20223;-65
2022/06/12 07:04:17;;;;;;;;;;;21.00;99.90;;;;;;5084397;28;19927;-65
2022/06/12 07:06:44;;;;;;;;;;;21.10;99.90;;;;;;5083687;28;19973;-65
2022/06/12 07:09:11;;;;;;;;;;;21.30;99.90;;;;;;5084195;28;19964;-65
2022/06/12 07:11:38;;;;;;;;;;;21.40;99.90;;;;;;5084346;28;19920;-65
2022/06/12 07:14:04;;;;;;;;;;;21.50;99.90;;;;;;5084434;28;19995;-65
2022/06/12 07:16:33;;;;;;;;;;;21.60;99.90;;;;;;5096537;28;19923;-66
2022/06/12 07:19:00;;;;;;;;;;;21.70;99.90;;;;;;5104360;28;19921;-65
2022/06/12 07:21:27;;;;;;;;;;;21.80;99.90;;;;;;5104443;28;19931;-66
2022/06/12 07:23:54;;;;;;;;;;;21.90;99.90;;;;;;5104191;28;19955;-65
2022/06/12 07:26:22;;;;;;;;;;;21.90;99.90;;;;;;5103468;28;19955;-64
2022/06/12 07:28:49;;;;;;;;;;;22.00;99.90;;;;;;5104234;28;19963;-65
2022/06/12 07:31:17;;;;;;;;;;;22.10;99.90;;;;;;5104570;28;19928;-65
2022/06/12 07:33:45;;;;;;;;;;;22.20;99.90;;;;;;5096861;28;20123;-65
2022/06/12 07:36:14;;;;;;;;;;;22.30;99.90;;;;;;5103313;28;19927;-66
2022/06/12 07:38:41;;;;;;;;;;;22.40;99.90;;;;;;5103992;28;20254;-64
2022/06/12 07:41:09;;;;;;;;;;;22.40;99.90;;;;;;5104048;28;19927;-65
2022/06/12 07:43:36;;;;;;;;;;;22.40;99.90;;;;;;5094955;28;19970;-66
2022/06/12 07:46:04;;;;;;;;;;;22.50;99.90;;;;;;5095078;28;19962;-66
2022/06/12 07:48:32;;;;;;;;;;;22.60;99.90;;;;;;5090508;28;19927;-65
2022/06/12 07:51:01;;;;;;;;;;;22.70;99.90;;;;;;5092089;28;19920;-66
2022/06/12 07:53:28;;;;;;;;;;;22.70;99.90;;;;;;5091531;28;19958;-66
2022/06/12 07:55:55;;;;;;;;;;;22.80;99.90;;;;;;5092508;28;19952;-66
2022/06/12 07:58:23;;;;;;;;;;;22.90;99.90;;;;;;5094572;28;20172;-66
2022/06/12 08:00:50;;;;;;;;;;;22.90;99.90;;;;;;5094047;28;19927;-66
2022/06/12 08:03:17;;;;;;;;;;;22.90;99.90;;;;;;5088491;28;19944;-65
2022/06/12 08:05:43;;;;;;;;;;;22.90;99.90;;;;;;5082591;28;20265;-68
2022/06/12 08:08:12;;;;;;;;;;;23.00;99.90;;;;;;5083499;28;20226;-68
2022/06/12 08:10:38;;;;;;;;;;;23.00;99.90;;;;;;5100630;28;19952;-67
2022/06/12 08:13:06;;;;;;;;;;;23.10;99.90;;;;;;5098474;28;19920;-68
2022/06/12 08:15:34;;;;;;;;;;;23.20;99.90;;;;;;5091279;28;20027;-68
2022/06/12 08:18:00;;;;;;;;;;;23.20;99.90;;;;;;5090592;28;20250;-68
2022/06/12 08:20:28;;;;;;;;;;;23.20;99.90;;;;;;5099552;28;19966;-68
2022/06/12 08:22:57;;;;;;;;;;;23.30;99.90;;;;;;5091746;28;19916;-69
2022/06/12 08:25:26;;;;;;;;;;;23.30;99.90;;;;;;5094976;28;19991;-68
2022/06/12 08:27:52;;;;;;;;;;;23.40;99.90;;;;;;5088424;28;19956;-68
2022/06/12 08:30:20;;;;;;;;;;;23.50;99.90;;;;;;5097312;28;19979;-68
2022/06/12 08:32:47;;;;;;;;;;;23.60;99.90;;;;;;5097201;28;19936;-68
2022/06/12 08:35:15;;;;;;;;;;;23.60;99.90;;;;;;5102606;28;20018;-69
2022/06/12 08:37:42;;;;;;;;;;;23.70;99.90;;;;;;5091757;28;19987;-68
2022/06/12 08:40:12;;;;;;;;;;;23.80;99.90;;;;;;5102260;28;19952;-70
2022/06/12 08:42:43;;;;;;;;;;;23.90;99.90;;;;;;5098768;28;20168;-69
2022/06/12 08:45:13;;;;;;;;;;;23.90;99.90;;;;;;5091946;28;19928;-69
2022/06/12 08:47:45;;;;;;;;;;;23.90;99.90;;;;;;5094759;28;19943;-69
2022/06/12 08:50:13;;;;;;;;;;;24.00;99.90;;;;;;5098086;28;19920;-69
2022/06/12 08:52:42;;;;;;;;;;;24.00;99.90;;;;;;5103302;28;19920;-69
2022/06/12 08:55:14;;;;;;;;;;;24.10;99.90;;;;;;5101658;28;20216;-68
2022/06/12 08:57:45;;;;;;;;;;;24.10;99.90;;;;;;5099983;28;19958;-69
2022/06/12 09:00:14;;;;;;;;;;;24.10;99.90;;;;;;5103613;28;19947;-68
2022/06/12 09:02:42;;;;;;;;;;;24.20;99.90;;;;;;5081200;28;20189;-68
2022/06/12 09:05:11;;;;;;;;;;;24.30;99.90;;;;;;5095877;28;19947;-68
2022/06/12 09:07:42;;;;;;;;;;;24.40;99.90;;;;;;5095009;28;20120;-68
2022/06/12 09:10:13;;;;;;;;;;;24.50;99.90;;;;;;5093870;28;19920;-67
2022/06/12 09:12:42;;;;;;;;;;;24.60;99.90;;;;;;5103620;28;19927;-68
2022/06/12 09:15:14;;;;;;;;;;;24.70;99.90;;;;;;5106898;28;19947;-68
2022/06/12 09:17:46;;;;;;;;;;;24.80;99.90;;;;;;5107027;28;19927;-68
2022/06/12 09:20:17;;;;;;;;;;;24.80;99.90;;;;;;5106941;28;19920;-68
2022/06/12 09:22:49;;;;;;;;;;;24.90;99.90;;;;;;5092232;28;19952;-69
2022/06/12 09:25:19;;;;;;;;;;;25.00;99.90;;;;;;5086015;28;19951;-69
2022/06/12 09:27:51;;;;;;;;;;;25.00;99.90;;;;;;5106241;28;20250;-68
2022/06/12 09:30:21;;;;;;;;;;;25.10;99.90;;;;;;5106872;28;19919;-68
2022/06/12 09:32:55;;;;;;;;;;;25.20;99.90;;;;;;5106797;28;20152;-69
2022/06/12 09:35:31;;;;;;;;;;;25.10;99.90;;;;;;5106111;28;19920;-68
2022/06/12 09:38:21;;;;;;;;;;;25.00;99.90;;;;;;5090953;28;19952;-68
2022/06/12 09:41:01;;;;;;;;;;;25.10;99.90;;;;;;5085991;28;19951;-68
2022/06/12 09:43:33;;;;;;;;;;;25.20;99.90;;;;;;5101209;28;19955;-68
2022/06/12 09:46:02;;;;;;;;;;;25.20;99.90;;;;;;5105985;28;19948;-68
2022/06/12 09:48:37;;;;;;;;;;;25.30;99.90;;;;;;5106266;28;19920;-68
2022/06/12 09:51:09;;;;;;;;;;;25.40;99.90;;;;;;5106518;28;19926;-68
2022/06/12 09:53:46;;;;;;;;;;;25.50;99.90;;;;;;5101474;28;19927;-68
2022/06/12 09:56:16;;;;;;;;;;;25.60;99.90;;;;;;5090529;28;19959;-69
2022/06/12 09:58:47;;;;;;;;;;;25.70;99.90;;;;;;5105749;28;19920;-69
2022/06/12 10:01:17;;;;;;;;;;;25.90;99.90;;;;;;5103287;28;19963;-68
2022/06/12 10:03:49;;;;;;;;;;;25.90;99.90;;;;;;5088192;28;19927;-69
2022/06/12 10:06:24;;;;;;;;;;;26.00;99.90;;;;;;5095617;28;19944;-69
2022/06/12 10:08:54;;;;;;;;;;;26.10;99.90;;;;;;5096620;28;19966;-69
2022/06/12 10:11:22;;;;;;;;;;;26.10;99.90;;;;;;5092769;28;20219;-69
2022/06/12 10:13:52;;;;;;;;;;;26.20;99.90;;;;;;5097479;28;19927;-69
2022/06/12 10:16:22;;;;;;;;;;;26.30;99.90;;;;;;5097266;28;19958;-69
2022/06/12 10:18:51;;;;;;;;;;;26.30;99.90;;;;;;5103429;28;19951;-69
2022/06/12 10:21:21;;;;;;;;;;;26.40;99.90;;;;;;5100558;28;19966;-69
2022/06/12 10:23:48;;;;;;;;;;;26.50;99.90;;;;;;5088237;28;19927;-69
2022/06/12 10:26:17;;;;;;;;;;;26.50;99.90;;;;;;5091330;28;19944;-69
2022/06/12 10:28:44;;;;;;;;;;;26.60;99.90;;;;;;5095950;28;19921;-69
2022/06/12 10:31:19;;;;;;;;;;;26.70;99.90;;;;;;5101232;28;20207;-69
2022/06/12 10:33:50;;;;;;;;;;;26.90;99.90;;;;;;5096281;28;20211;-69
2022/06/12 10:36:21;;;;;;;;;;;27.00;99.90;;;;;;5100883;28;19999;-69
2022/06/12 10:38:49;;;;;;;;;;;27.20;99.90;;;;;;5095982;28;19958;-68
2022/06/12 10:41:23;;;;;;;;;;;27.20;99.90;;;;;;5103839;28;19951;-68
2022/06/12 10:43:51;;;;;;;;;;;27.30;99.90;;;;;;5086280;28;20115;-68
2022/06/12 10:46:19;;;;;;;;;;;27.40;99.90;;;;;;5093061;28;19920;-69
2022/06/12 10:48:57;;;;;;;;;;;27.50;99.90;;;;;;5104195;28;19920;-69
2022/06/12 10:51:25;;;;;;;;;;;27.70;99.90;;;;;;5098929;28;19928;-68
2022/06/12 10:53:59;;;;;;;;;;;27.80;99.90;;;;;;5093044;28;19928;-69
2022/06/12 10:56:28;;;;;;;;;;;28.00;99.90;;;;;;5083929;28;19928;-69
2022/06/12 10:59:09;;;;;;;;;;;28.10;99.40;;;;;;5084583;28;19948;-68
2022/06/12 11:01:39;;;;;;;;;;;28.10;97.50;;;;;;5093518;28;19920;-68
2022/06/12 11:04:14;;;;;;;;;;;28.20;96.70;;;;;;5099318;28;19920;-68
2022/06/12 11:06:44;;;;;;;;;;;28.20;98.50;;;;;;5094330;28;19979;-69
2022/06/12 11:09:18;;;;;;;;;;;28.30;97.90;;;;;;5084637;28;20247;-68
2022/06/12 11:11:55;;;;;;;;;;;28.30;99.30;;;;;;5095033;28;19924;-68
2022/06/12 11:14:29;;;;;;;;;;;28.40;97.80;;;;;;5087450;28;19956;-69
2022/06/12 11:17:04;;;;;;;;;;;28.60;96.70;;;;;;5101600;28;19920;-69
2022/06/12 11:19:49;;;;;;;;;;;28.70;97.20;;;;;;5089892;28;19920;-69
2022/06/12 11:22:24;;;;;;;;;;;28.90;96.40;;;;;;5087051;28;19959;-69
2022/06/12 11:24:54;;;;;;;;;;;29.10;97.40;;;;;;5095259;28;19928;-69
2022/06/12 11:27:28;;;;;;;;;;;29.20;95.90;;;;;;5097435;28;19920;-69
2022/06/12 11:30:03;;;;;;;;;;;29.30;95.20;;;;;;5090546;28;20292;-69
2022/06/12 11:32:38;;;;;;;;;;;29.30;93.80;;;;;;5098023;28;19926;-68
2022/06/12 11:35:11;;;;;;;;;;;29.10;92.50;;;;;;5097741;28;19927;-69
2022/06/12 11:37:54;;;;;;;;;;;29.20;93.60;;;;;;5103968;28;19959;-68
2022/06/12 11:40:25;;;;;;;;;;;29.40;94.90;;;;;;5091114;28;19919;-68
2022/06/12 11:42:59;;;;;;;;;;;29.40;94.10;;;;;;5100127;22;19925;-85
2022/06/12 11:45:31;;;;;;;;;;;29.20;94.30;;;;;;5077227;28;20263;-85
2022/06/12 11:48:03;;;;;;;;;;;29.10;94.70;;;;;;5080444;28;19935;-87
2022/06/12 11:50:36;;;;;;;;;;;29.30;94.00;;;;;;5075795;28;19921;-87
2022/06/12 11:53:08;;;;;;;;;;;29.30;93.20;;;;;;5066207;28;19920;-86
2022/06/12 11:55:37;;;;;;;;;;;29.10;93.40;;;;;;5075402;28;19924;-86
2022/06/12 11:58:12;;;;;;;;;;;28.90;93.10;;;;;;5078626;28;20103;-85
2022/06/12 12:00:52;;;;;;;;;;;28.80;93.30;;;;;;5077583;28;20123;-86
2022/06/12 12:03:33;;;;;;;;;;;28.60;93.20;;;;;;5078631;28;19943;-87
2022/06/12 12:06:07;;;;;;;;;;;28.30;92.10;;;;;;5067338;28;19951;-85
2022/06/12 12:08:48;;;;;;;;;;;28.10;93.00;;;;;;5083746;28;19928;-85
2022/06/12 12:11:18;;;;;;;;;;;28.40;94.20;;;;;;5083926;28;19927;-86
2022/06/12 12:13:46;;;;;;;;;;;28.70;92.80;;;;;;5082867;28;19928;-85
2022/06/12 12:16:16;;;;;;;;;;;29.20;92.60;;;;;;5073291;28;19956;-85
2022/06/12 12:18:45;;;;;;;;;;;29.60;92.10;;;;;;5076880;28;20127;-86
2022/06/12 12:21:15;;;;;;;;;;;29.90;90.00;;;;;;5076618;28;19956;-87
2022/06/12 12:23:44;;;;;;;;;;;30.10;90.60;;;;;;5066411;28;19921;-85
2022/06/12 12:26:15;;;;;;;;;;;30.30;90.20;;;;;;5063381;28;19952;-85
2022/06/12 12:28:44;;;;;;;;;;;30.30;90.50;;;;;;5073236;28;19943;-85
2022/06/12 12:31:13;;;;;;;;;;;30.30;88.90;;;;;;5081190;28;19921;-85
2022/06/12 12:33:40;;;;;;;;;;;30.40;88.60;;;;;;5082310;28;19940;-86
2022/06/12 12:41:42;;;;;;;;;;;30.70;88.30;;;;;;5083990;28;19959;-85
2022/06/12 12:44:10;;;;;;;;;;;30.80;88.20;;;;;;5069766;28;19949;-85
2022/06/12 12:46:43;;;;;;;;;;;31.00;89.20;;;;;;5077519;28;19921;-86
2022/06/12 12:49:20;;;;;;;;;;;31.20;85.80;;;;;;5068936;28;19936;-86
2022/06/12 12:51:47;;;;;;;;;;;31.40;87.60;;;;;;5068805;28;20179;-89
2022/06/12 12:54:19;;;;;;;;;;;31.60;83.50;;;;;;5082374;28;20208;-89
2022/06/12 12:56:54;;;;;;;;;;;31.40;82.20;;;;;;5088708;28;19924;-89
2022/06/12 12:59:21;;;;;;;;;;;31.10;83.60;;;;;;5068923;28;19921;-88
2022/06/12 13:01:49;;;;;;;;;;;30.60;82.90;;;;;;5074398;28;19920;-88
2022/06/12 13:04:19;;;;;;;;;;;30.40;82.30;;;;;;5082838;28;19921;-88
2022/06/12 13:06:55;;;;;;;;;;;30.30;85.20;;;;;;5083834;28;20270;-88
2022/06/12 13:09:33;;;;;;;;;;;30.50;84.30;;;;;;5087202;28;19955;-88
2022/06/12 13:12:08;;;;;;;;;;;30.60;80.00;;;;;;5075618;28;19936;-89
2022/06/12 13:14:43;;;;;;;;;;;30.90;78.70;;;;;;5067061;28;19941;-89
2022/06/12 13:17:18;;;;;;;;;;;31.10;79.20;;;;;;5073207;28;19920;-88
2022/06/12 13:20:04;;;;;;;;;;;31.20;80.80;;;;;;5072996;28;20164;-88
2022/06/12 13:22:39;;;;;;;;;;;31.10;80.00;;;;;;5067023;28;19967;-88
2022/06/12 13:25:09;;;;;;;;;;;31.20;82.60;;;;;;5066817;28;19940;-88
2022/06/12 13:27:47;;;;;;;;;;;31.50;81.90;;;;;;5067340;28;20227;-88
2022/06/12 13:30:19;;;;;;;;;;;31.60;80.00;;;;;;5070741;28;19920;-88
2022/06/12 13:32:45;;;;;;;;;;;31.60;78.90;;;;;;5087495;28;19920;-89
2022/06/12 13:35:19;;;;;;;;;;;31.50;77.50;;;;;;5077849;28;20038;-88
2022/06/12 13:37:48;;;;;;;;;;;31.60;76.90;;;;;;5077239;28;19943;-88
2022/06/12 13:40:25;;;;;;;;;;;31.80;78.50;;;;;;5087253;28;19920;-88
2022/06/12 13:42:52;;;;;;;;;;;31.90;78.10;;;;;;5087233;28;19920;-89
2022/06/12 13:45:20;;;;;;;;;;;32.10;78.20;;;;;;5083735;28;19920;-89
2022/06/12 13:47:47;;;;;;;;;;;32.20;75.60;;;;;;5087109;28;19983;-88
2022/06/12 13:50:19;;;;;;;;;;;32.10;75.10;;;;;;5085985;28;20108;-88
2022/06/12 13:53:01;;;;;;;;;;;32.10;76.20;;;;;;5086868;28;19936;-89
2022/06/12 13:55:31;;;;;;;;;;;32.20;75.50;;;;;;5086651;28;19959;-88
2022/06/12 13:58:00;;;;;;;;;;;32.30;74.50;;;;;;5072052;28;20100;-88
2022/06/12 14:00:28;;;;;;;;;;;32.40;74.40;;;;;;5080739;28;19921;-88
2022/06/12 14:02:55;;;;;;;;;;;32.40;76.10;;;;;;5078076;28;19928;-88
2022/06/12 14:05:24;;;;;;;;;;;32.20;73.90;;;;;;5066527;28;20212;-88
2022/06/12 14:08:03;;;;;;;;;;;32.10;74.20;;;;;;5066112;28;19921;-88
2022/06/12 14:10:32;;;;;;;;;;;32.20;73.40;;;;;;5075517;28;20169;-88
2022/06/12 14:13:00;;;;;;;;;;;32.10;74.10;;;;;;5086841;28;19940;-88
2022/06/12 14:15:29;;;;;;;;;;;32.20;73.70;;;;;;5087873;28;19920;-89
2022/06/12 14:17:57;;;;;;;;;;;32.30;73.80;;;;;;5080932;28;19921;-88
2022/06/12 14:20:26;;;;;;;;;;;32.30;73.80;;;;;;5072695;28;19948;-88
2022/06/12 14:22:55;;;;;;;;;;;32.30;72.50;;;;;;5066649;28;19976;-88
2022/06/12 14:25:24;;;;;;;;;;;32.40;74.10;;;;;;5085593;28;19920;-88
2022/06/12 14:27:57;;;;;;;;;;;32.50;73.00;;;;;;5086059;28;19921;-88
2022/06/12 14:30:35;;;;;;;;;;;32.60;72.00;;;;;;5076751;28;19941;-88
2022/06/12 14:33:02;;;;;;;;;;;32.20;70.60;;;;;;5085419;28;20154;-88
2022/06/12 14:35:29;;;;;;;;;;;31.80;70.90;;;;;;5085124;28;19955;-88
2022/06/12 14:37:55;;;;;;;;;;;31.60;71.30;;;;;;5085487;28;19927;-88
2022/06/12 14:40:24;;;;;;;;;;;31.80;72.30;;;;;;5085548;28;19927;-88
2022/06/12 14:42:51;;;;;;;;;;;31.80;69.80;;;;;;5068040;28;19948;-88
2022/06/12 14:45:19;;;;;;;;;;;31.90;72.10;;;;;;5076880;28;19983;-89
2022/06/12 14:47:50;;;;;;;;;;;32.00;70.30;;;;;;5085415;28;20134;-90